sensor_id;sensor_type;location;lat;lon;timestamp;pressure;altitude;pressure_sealevel;temperature;humidity
77165;BME280;66140;50.280;18.660;2023-05-19T04:00:43;99857.53;;;7.84;97.73
77165;BME280;66140;50.280;18.660;2023-05-19T04:03:09;99864.50;;;7.86;96.01
77165;BME280;66140;50.280;18.660;2023-05-19T04:05:34;99862.53;;;7.91;97.20
77165;BME280;66140;50.280;18.660;2023-05-19T04:07:59;99857.09;;;7.94;97.03
77165;BME280;66140;50.280;18.660;2023-05-19T04:10:25;99850.94;;;7.94;98.42
77165;BME280;66140;50.280;18.660;2023-05-19T04:12:50;99857.03;;;7.96;97.58
77165;BME280;66140;50.280;18.660;2023-05-19T04:15:15;99861.28;;;8.00;97.31
77165;BME280;66140;50.280;18.660;2023-05-19T04:17:41;99861.03;;;8.06;97.64
77165;BME280;66140;50.280;18.660;2023-05-19T04:20:07;99856.72;;;8.03;99.63
77165;BME280;66140;50.280;18.660;2023-05-19T04:22:32;99861.88;;;8.06;98.07
77165;BME280;66140;50.280;18.660;2023-05-19T04:24:58;99873.31;;;8.07;99.58
77165;BME280;66140;50.280;18.660;2023-05-19T04:27:24;99864.59;;;8.05;100.00
77165;BME280;66140;50.280;18.660;2023-05-19T04:29:52;99853.16;;;8.04;99.59
77165;BME280;66140;50.280;18.660;2023-05-19T04:32:18;99852.31;;;8.04;98.89
77165;BME280;66140;50.280;18.660;2023-05-19T04:34:44;99853.13;;;8.06;99.17
77165;BME280;66140;50.280;18.660;2023-05-19T04:37:13;99857.34;;;8.10;99.22
77165;BME280;66140;50.280;18.660;2023-05-19T04:39:41;99859.97;;;8.10;98.90
77165;BME280;66140;50.280;18.660;2023-05-19T04:42:09;99859.66;;;8.18;98.55
77165;BME280;66140;50.280;18.660;2023-05-19T04:44:38;99857.94;;;8.17;100.00
77165;BME280;66140;50.280;18.660;2023-05-19T04:47:07;99872.69;;;8.22;99.87
77165;BME280;66140;50.280;18.660;2023-05-19T04:49:35;99869.13;;;8.23;100.00
77165;BME280;66140;50.280;18.660;2023-05-19T04:52:07;99879.53;;;8.26;100.00
77165;BME280;66140;50.280;18.660;2023-05-19T04:54:37;99875.22;;;8.25;99.60
77165;BME280;66140;50.280;18.660;2023-05-19T04:57:03;99878.41;;;8.33;100.00
77165;BME280;66140;50.280;18.660;2023-05-19T04:59:28;99887.13;;;8.35;100.00
77165;BME280;66140;50.280;18.660;2023-05-19T05:01:55;99877.22;;;8.40;100.00
77165;BME280;66140;50.280;18.660;2023-05-19T05:04:20;99873.06;;;8.35;100.00
77165;BME280;66140;50.280;18.660;2023-05-19T05:06:46;99879.16;;;8.37;100.00
77165;BME280;66140;50.280;18.660;2023-05-19T05:09:16;99882.25;;;8.47;100.00
77165;BME280;66140;50.280;18.660;2023-05-19T05:11:42;99862.81;;;8.48;99.90
77165;BME280;66140;50.280;18.660;2023-05-19T05:14:08;99874.84;;;8.55;100.00
77165;BME280;66140;50.280;18.660;2023-05-19T05:16:34;99874.47;;;8.64;100.00
77165;BME280;66140;50.280;18.660;2023-05-19T05:19:00;99880.53;;;8.66;100.00
77165;BME280;66140;50.280;18.660;2023-05-19T05:21:27;99867.31;;;8.66;100.00
77165;BME280;66140;50.280;18.660;2023-05-19T05:23:52;99867.19;;;8.69;100.00
77165;BME280;66140;50.280;18.660;2023-05-19T05:26:19;99874.84;;;8.75;100.00
77165;BME280;66140;50.280;18.660;2023-05-19T05:28:47;99876.31;;;8.82;100.00
77165;BME280;66140;50.280;18.660;2023-05-19T05:31:13;99864.63;;;8.86;100.00
77165;BME280;66140;50.280;18.660;2023-05-19T05:33:38;99860.91;;;8.90;100.00
77165;BME280;66140;50.280;18.660;2023-05-19T05:36:04;99857.56;;;8.87;100.00
77165;BME280;66140;50.280;18.660;2023-05-19T05:38:30;99859.56;;;8.81;100.00
77165;BME280;66140;50.280;18.660;2023-05-19T05:40:55;99864.06;;;8.79;100.00
77165;BME280;66140;50.280;18.660;2023-05-19T05:43:20;99866.47;;;8.84;100.00
77165;BME280;66140;50.280;18.660;2023-05-19T05:45:46;99864.41;;;8.91;100.00
77165;BME280;66140;50.280;18.660;2023-05-19T05:48:11;99866.31;;;8.89;100.00
77165;BME280;66140;50.280;18.660;2023-05-19T05:50:37;99880.13;;;8.95;100.00
77165;BME280;66140;50.280;18.660;2023-05-19T05:53:04;99883.41;;;9.00;100.00
77165;BME280;66140;50.280;18.660;2023-05-19T05:55:30;99894.59;;;9.07;100.00
77165;BME280;66140;50.280;18.660;2023-05-19T05:57:56;99886.88;;;9.02;100.00
77165;BME280;66140;50.280;18.660;2023-05-19T06:00:22;99903.38;;;9.07;100.00
77165;BME280;66140;50.280;18.660;2023-05-19T06:02:49;99895.28;;;9.10;100.00
77165;BME280;66140;50.280;18.660;2023-05-19T06:05:34;99892.53;;;9.13;100.00
77165;BME280;66140;50.280;18.660;2023-05-19T06:08:00;99902.47;;;9.08;100.00
77165;BME280;66140;50.280;18.660;2023-05-19T06:10:27;99904.91;;;9.13;100.00
77165;BME280;66140;50.280;18.660;2023-05-19T06:12:52;99904.56;;;9.20;100.00
77165;BME280;66140;50.280;18.660;2023-05-19T06:15:18;99905.47;;;9.19;100.00
77165;BME280;66140;50.280;18.660;2023-05-19T06:17:43;99897.94;;;9.10;100.00
77165;BME280;66140;50.280;18.660;2023-05-19T06:20:09;99897.75;;;9.15;100.00
77165;BME280;66140;50.280;18.660;2023-05-19T06:22:35;99892.94;;;9.23;100.00
77165;BME280;66140;50.280;18.660;2023-05-19T06:25:00;99891.63;;;9.33;100.00
77165;BME280;66140;50.280;18.660;2023-05-19T06:27:25;99888.16;;;9.31;100.00
77165;BME280;66140;50.280;18.660;2023-05-19T06:29:51;99895.91;;;9.36;100.00
77165;BME280;66140;50.280;18.660;2023-05-19T06:32:16;99897.50;;;9.40;100.00
77165;BME280;66140;50.280;18.660;2023-05-19T06:34:42;99898.75;;;9.50;100.00
77165;BME280;66140;50.280;18.660;2023-05-19T06:37:07;99896.75;;;9.55;100.00
77165;BME280;66140;50.280;18.660;2023-05-19T06:39:32;99898.19;;;9.62;100.00
77165;BME280;66140;50.280;18.660;2023-05-19T06:41:58;99897.03;;;9.68;100.00
77165;BME280;66140;50.280;18.660;2023-05-19T06:44:23;99899.63;;;9.69;100.00
77165;BME280;66140;50.280;18.660;2023-05-19T06:46:49;99897.91;;;9.68;100.00
77165;BME280;66140;50.280;18.660;2023-05-19T06:49:14;99896.03;;;9.70;100.00
77165;BME280;66140;50.280;18.660;2023-05-19T06:51:39;99900.25;;;9.74;100.00
77165;BME280;66140;50.280;18.660;2023-05-19T06:54:05;99898.03;;;9.84;100.00
77165;BME280;66140;50.280;18.660;2023-05-19T06:56:31;99887.50;;;9.82;100.00
77165;BME280;66140;50.280;18.660;2023-05-19T06:58:56;99885.47;;;9.87;100.00
77165;BME280;66140;50.280;18.660;2023-05-19T07:01:21;99888.13;;;9.87;100.00
77165;BME280;66140;50.280;18.660;2023-05-19T07:03:47;99879.56;;;9.82;100.00
77165;BME280;66140;50.280;18.660;2023-05-19T07:06:12;99874.03;;;9.87;100.00
77165;BME280;66140;50.280;18.660;2023-05-19T07:08:37;99873.94;;;9.88;100.00
77165;BME280;66140;50.280;18.660;2023-05-19T07:11:03;99869.50;;;9.89;100.00
77165;BME280;66140;50.280;18.660;2023-05-19T07:13:28;99873.34;;;10.00;100.00
77165;BME280;66140;50.280;18.660;2023-05-19T07:15:54;99881.78;;;10.09;100.00
77165;BME280;66140;50.280;18.660;2023-05-19T07:18:22;99876.63;;;10.05;100.00
77165;BME280;66140;50.280;18.660;2023-05-19T07:20:47;99862.59;;;10.03;100.00
77165;BME280;66140;50.280;18.660;2023-05-19T07:23:13;99879.66;;;10.17;100.00
77165;BME280;66140;50.280;18.660;2023-05-19T07:25:38;99876.78;;;10.21;100.00
77165;BME280;66140;50.280;18.660;2023-05-19T07:28:03;99871.22;;;10.26;100.00
77165;BME280;66140;50.280;18.660;2023-05-19T07:30:29;99877.16;;;10.31;100.00
77165;BME280;66140;50.280;18.660;2023-05-19T07:32:55;99881.22;;;10.38;100.00
77165;BME280;66140;50.280;18.660;2023-05-19T07:35:20;99879.28;;;10.41;100.00
77165;BME280;66140;50.280;18.660;2023-05-19T07:37:50;99883.72;;;10.41;100.00
77165;BME280;66140;50.280;18.660;2023-05-19T07:40:15;99877.63;;;10.39;100.00
77165;BME280;66140;50.280;18.660;2023-05-19T07:42:41;99892.31;;;10.46;100.00
77165;BME280;66140;50.280;18.660;2023-05-19T07:45:07;99891.06;;;10.53;100.00
77165;BME280;66140;50.280;18.660;2023-05-19T07:47:32;99890.81;;;10.58;100.00
77165;BME280;66140;50.280;18.660;2023-05-19T07:49:58;99898.41;;;10.65;100.00
77165;BME280;66140;50.280;18.660;2023-05-19T07:52:24;99894.63;;;10.69;100.00
77165;BME280;66140;50.280;18.660;2023-05-19T07:54:49;99893.56;;;10.73;100.00
77165;BME280;66140;50.280;18.660;2023-05-19T07:57:14;99896.22;;;10.73;100.00
77165;BME280;66140;50.280;18.660;2023-05-19T07:59:40;99890.38;;;10.67;100.00
77165;BME280;66140;50.280;18.660;2023-05-19T08:02:06;99899.81;;;10.72;100.00
77165;BME280;66140;50.280;18.660;2023-05-19T08:04:31;99886.22;;;10.78;100.00
77165;BME280;66140;50.280;18.660;2023-05-19T08:06:57;99889.16;;;10.90;100.00
77165;BME280;66140;50.280;18.660;2023-05-19T08:09:22;99891.00;;;11.05;100.00
77165;BME280;66140;50.280;18.660;2023-05-19T08:11:47;99893.78;;;11.19;100.00
77165;BME280;66140;50.280;18.660;2023-05-19T08:14:14;99895.50;;;11.20;100.00
77165;BME280;66140;50.280;18.660;2023-05-19T08:16:39;99896.69;;;11.14;100.00
77165;BME280;66140;50.280;18.660;2023-05-19T08:19:07;99894.88;;;11.15;100.00
77165;BME280;66140;50.280;18.660;2023-05-19T08:21:33;99903.03;;;11.12;100.00
77165;BME280;66140;50.280;18.660;2023-05-19T08:23:59;99905.59;;;11.13;100.00
77165;BME280;66140;50.280;18.660;2023-05-19T08:26:25;99905.28;;;11.19;100.00
77165;BME280;66140;50.280;18.660;2023-05-19T08:28:51;99905.97;;;11.23;100.00
77165;BME280;66140;50.280;18.660;2023-05-19T08:31:16;99904.25;;;11.22;100.00
77165;BME280;66140;50.280;18.660;2023-05-19T08:33:43;99912.06;;;11.25;100.00
77165;BME280;66140;50.280;18.660;2023-05-19T08:36:09;99896.69;;;11.14;100.00
77165;BME280;66140;50.280;18.660;2023-05-19T08:38:34;99903.88;;;11.12;100.00
77165;BME280;66140;50.280;18.660;2023-05-19T08:41:00;99908.00;;;11.18;100.00
77165;BME280;66140;50.280;18.660;2023-05-19T08:43:25;99906.97;;;11.20;100.00
77165;BME280;66140;50.280;18.660;2023-05-19T08:45:51;99904.09;;;11.25;100.00
77165;BME280;66140;50.280;18.660;2023-05-19T08:48:18;99902.19;;;11.27;100.00
77165;BME280;66140;50.280;18.660;2023-05-19T08:53:47;99903.91;;;11.28;100.00
77165;BME280;66140;50.280;18.660;2023-05-19T08:56:15;99904.25;;;11.22;100.00
77165;BME280;66140;50.280;18.660;2023-05-19T08:58:41;99896.72;;;11.30;100.00
77165;BME280;66140;50.280;18.660;2023-05-19T09:01:12;99898.09;;;11.37;100.00
77165;BME280;66140;50.280;18.660;2023-05-19T09:03:38;99896.25;;;11.55;100.00
77165;BME280;66140;50.280;18.660;2023-05-19T09:06:06;99893.84;;;11.66;100.00
77165;BME280;66140;50.280;18.660;2023-05-19T09:08:41;99894.75;;;11.82;100.00
77165;BME280;66140;50.280;18.660;2023-05-19T09:11:10;99900.22;;;11.95;100.00
77165;BME280;66140;50.280;18.660;2023-05-19T09:13:36;99897.66;;;12.09;100.00
77165;BME280;66140;50.280;18.660;2023-05-19T09:16:01;99904.47;;;12.29;100.00
77165;BME280;66140;50.280;18.660;2023-05-19T09:18:27;99900.50;;;12.36;100.00
77165;BME280;66140;50.280;18.660;2023-05-19T09:20:57;99897.88;;;12.50;100.00
77165;BME280;66140;50.280;18.660;2023-05-19T09:23:32;99902.19;;;12.53;100.00
77165;BME280;66140;50.280;18.660;2023-05-19T09:26:01;99897.97;;;12.49;100.00
77165;BME280;66140;50.280;18.660;2023-05-19T09:28:30;99893.00;;;12.42;100.00
77165;BME280;66140;50.280;18.660;2023-05-19T09:31:01;99903.84;;;12.39;100.00
77165;BME280;66140;50.280;18.660;2023-05-19T09:33:27;99901.47;;;12.19;100.00
77165;BME280;66140;50.280;18.660;2023-05-19T09:35:54;99899.31;;;12.26;100.00
77165;BME280;66140;50.280;18.660;2023-05-19T09:38:22;99909.81;;;12.29;100.00
77165;BME280;66140;50.280;18.660;2023-05-19T09:40:48;99904.88;;;12.37;100.00
77165;BME280;66140;50.280;18.660;2023-05-19T09:43:14;99903.94;;;12.38;100.00
77165;BME280;66140;50.280;18.660;2023-05-19T09:45:40;99906.50;;;12.39;100.00
77165;BME280;66140;50.280;18.660;2023-05-19T09:48:06;99895.09;;;12.37;100.00
77165;BME280;66140;50.280;18.660;2023-05-19T09:50:31;99899.03;;;12.30;100.00
77165;BME280;66140;50.280;18.660;2023-05-19T09:52:58;99894.00;;;12.10;100.00
77165;BME280;66140;50.280;18.660;2023-05-19T09:55:25;99902.34;;;12.04;100.00
77165;BME280;66140;50.280;18.660;2023-05-19T09:57:54;99905.78;;;12.06;100.00
77165;BME280;66140;50.280;18.660;2023-05-19T10:00:21;99902.19;;;12.07;100.00
77165;BME280;66140;50.280;18.660;2023-05-19T10:02:48;99897.03;;;12.04;100.00
77165;BME280;66140;50.280;18.660;2023-05-19T10:05:16;99901.41;;;12.05;100.00
77165;BME280;66140;50.280;18.660;2023-05-19T10:07:44;99890.59;;;12.08;100.00
77165;BME280;66140;50.280;18.660;2023-05-19T10:10:13;99892.31;;;12.09;100.00
77165;BME280;66140;50.280;18.660;2023-05-19T10:12:40;99884.78;;;12.01;100.00
77165;BME280;66140;50.280;18.660;2023-05-19T10:15:09;99889.66;;;12.09;100.00
77165;BME280;66140;50.280;18.660;2023-05-19T10:17:37;99890.91;;;12.18;100.00
77165;BME280;66140;50.280;18.660;2023-05-19T10:20:03;99897.09;;;12.18;100.00
77165;BME280;66140;50.280;18.660;2023-05-19T10:22:31;99894.72;;;12.14;100.00
77165;BME280;66140;50.280;18.660;2023-05-19T10:24:56;99888.97;;;12.05;100.00
77165;BME280;66140;50.280;18.660;2023-05-19T10:27:22;99891.47;;;11.93;100.00
77165;BME280;66140;50.280;18.660;2023-05-19T10:29:53;99889.06;;;11.88;100.00
77165;BME280;66140;50.280;18.660;2023-05-19T10:32:27;99889.41;;;11.98;100.00
77165;BME280;66140;50.280;18.660;2023-05-19T10:35:18;99880.91;;;12.07;100.00
77165;BME280;66140;50.280;18.660;2023-05-19T10:38:05;99881.34;;;12.15;100.00
77165;BME280;66140;50.280;18.660;2023-05-19T10:40:52;99880.84;;;12.23;100.00
77165;BME280;66140;50.280;18.660;2023-05-19T10:46:12;99889.47;;;12.42;100.00
77165;BME280;66140;50.280;18.660;2023-05-19T10:48:43;99886.56;;;12.47;100.00
77165;BME280;66140;50.280;18.660;2023-05-19T10:51:08;99880.69;;;12.56;100.00
77165;BME280;66140;50.280;18.660;2023-05-19T10:53:40;99869.38;;;12.52;100.00
77165;BME280;66140;50.280;18.660;2023-05-19T10:56:05;99872.34;;;12.62;100.00
77165;BME280;66140;50.280;18.660;2023-05-19T11:01:15;99873.31;;;12.61;100.00
77165;BME280;66140;50.280;18.660;2023-05-19T11:06:29;99872.56;;;12.73;100.00
77165;BME280;66140;50.280;18.660;2023-05-19T11:11:49;99867.06;;;12.90;100.00
77165;BME280;66140;50.280;18.660;2023-05-19T11:14:17;99875.84;;;12.92;99.88
77165;BME280;66140;50.280;18.660;2023-05-19T11:16:46;99874.84;;;12.93;99.51
77165;BME280;66140;50.280;18.660;2023-05-19T11:19:35;99873.16;;;13.06;99.58
77165;BME280;66140;50.280;18.660;2023-05-19T11:22:10;99879.00;;;13.13;100.00
77165;BME280;66140;50.280;18.660;2023-05-19T11:24:46;99876.78;;;12.91;99.17
77165;BME280;66140;50.280;18.660;2023-05-19T11:27:31;99878.66;;;12.89;99.55
77165;BME280;66140;50.280;18.660;2023-05-19T11:30:01;99884.31;;;12.99;99.46
77165;BME280;66140;50.280;18.660;2023-05-19T11:32:34;99879.09;;;13.11;99.83
77165;BME280;66140;50.280;18.660;2023-05-19T11:35:03;99875.69;;;13.23;99.78
77165;BME280;66140;50.280;18.660;2023-05-19T11:37:30;99870.22;;;13.25;100.00
77165;BME280;66140;50.280;18.660;2023-05-19T11:39:56;99868.81;;;13.34;100.00
77165;BME280;66140;50.280;18.660;2023-05-19T11:42:22;99870.34;;;13.38;99.34
77165;BME280;66140;50.280;18.660;2023-05-19T11:44:48;99871.09;;;13.40;98.91
77165;BME280;66140;50.280;18.660;2023-05-19T11:47:15;99874.13;;;13.34;99.14
77165;BME280;66140;50.280;18.660;2023-05-19T11:49:47;99873.97;;;13.37;99.88
77165;BME280;66140;50.280;18.660;2023-05-19T11:52:13;99870.06;;;13.42;99.20
77165;BME280;66140;50.280;18.660;2023-05-19T11:54:40;99871.47;;;13.34;99.34
77165;BME280;66140;50.280;18.660;2023-05-19T11:57:09;99871.31;;;13.37;100.00
77165;BME280;66140;50.280;18.660;2023-05-19T11:59:36;99875.69;;;13.38;98.97
77165;BME280;66140;50.280;18.660;2023-05-19T12:02:24;99882.69;;;13.39;98.74
77165;BME280;66140;50.280;18.660;2023-05-19T12:04:52;99875.47;;;13.41;99.98
77165;BME280;66140;50.280;18.660;2023-05-19T12:07:20;99880.16;;;13.37;99.63
77165;BME280;66140;50.280;18.660;2023-05-19T12:09:48;99880.25;;;13.36;99.86
77165;BME280;66140;50.280;18.660;2023-05-19T12:12:20;99875.28;;;13.44;98.81
77165;BME280;66140;50.280;18.660;2023-05-19T12:14:48;99861.38;;;13.39;99.54
77165;BME280;66140;50.280;18.660;2023-05-19T12:17:14;99873.84;;;13.38;98.97
77165;BME280;66140;50.280;18.660;2023-05-19T12:19:42;99876.72;;;13.35;99.70
77165;BME280;66140;50.280;18.660;2023-05-19T12:22:08;99874.53;;;13.28;99.87
77165;BME280;66140;50.280;18.660;2023-05-19T12:24:35;99867.69;;;13.23;99.74
77165;BME280;66140;50.280;18.660;2023-05-19T12:27:22;99865.75;;;13.25;99.58
77165;BME280;66140;50.280;18.660;2023-05-19T12:29:49;99860.72;;;13.35;99.87
77165;BME280;66140;50.280;18.660;2023-05-19T12:32:21;99860.97;;;13.45;99.21
77165;BME280;66140;50.280;18.660;2023-05-19T12:34:47;99859.25;;;13.58;99.27
77165;BME280;66140;50.280;18.660;2023-05-19T12:37:13;99860.88;;;13.60;99.31
77165;BME280;66140;50.280;18.660;2023-05-19T12:39:40;99846.13;;;13.55;99.55
77165;BME280;66140;50.280;18.660;2023-05-19T12:42:10;99852.97;;;13.59;99.07
77165;BME280;66140;50.280;18.660;2023-05-19T12:44:45;99848.03;;;13.53;100.00
77165;BME280;66140;50.280;18.660;2023-05-19T12:47:12;99851.25;;;13.58;99.76
77165;BME280;66140;50.280;18.660;2023-05-19T12:50:03;99847.84;;;13.56;99.15
77165;BME280;66140;50.280;18.660;2023-05-19T12:52:30;99851.84;;;13.63;98.85
77165;BME280;66140;50.280;18.660;2023-05-19T12:55:04;99855.16;;;13.67;99.22
77165;BME280;66140;50.280;18.660;2023-05-19T12:57:33;99850.47;;;13.70;99.02
77165;BME280;66140;50.280;18.660;2023-05-19T13:00:05;99851.72;;;13.64;98.83
77165;BME280;66140;50.280;18.660;2023-05-19T13:02:33;99836.38;;;13.68;99.03
